createdAt,value
2023-11-23T00:01:26.100Z,5.33
2023-11-23T00:06:29.661Z,5.20
2023-11-23T00:11:32.997Z,5.63
2023-11-23T00:16:37.980Z,4.87
2023-11-23T00:21:41.208Z,4.67
2023-11-23T00:26:45.186Z,5.30
2023-11-23T00:31:49.939Z,4.80
2023-11-23T00:36:53.456Z,3.80
2023-11-23T00:41:56.739Z,4.10
2023-11-23T00:47:01.731Z,3.10
2023-11-23T00:52:05.667Z,4.30
2023-11-23T00:57:09.237Z,3.70
2023-11-23T01:02:14.381Z,3.20
2023-11-23T01:07:18.573Z,2.87
2023-11-23T01:12:22.361Z,4.53
2023-11-23T01:17:29.284Z,3.00
2023-11-23T01:22:32.609Z,3.60
2023-11-23T01:27:56.326Z,2.63
2023-11-23T01:33:03.006Z,3.23
2023-11-23T01:38:06.404Z,3.20
2023-11-23T01:43:11.232Z,3.00
2023-11-23T01:48:17.344Z,3.40
2023-11-23T01:53:41.812Z,2.57
2023-11-23T01:59:07.108Z,2.70
2023-11-23T02:04:31.925Z,3.33
2023-11-23T02:09:35.410Z,2.57
2023-11-23T02:14:39.485Z,3.23
2023-11-23T02:19:44.848Z,2.20
2023-11-23T02:24:49.743Z,2.30
2023-11-23T02:30:14.513Z,2.20
2023-11-23T02:35:38.074Z,4.03
2023-11-23T02:40:43.063Z,1.93
2023-11-23T02:45:47.289Z,2.00
2023-11-23T02:50:50.682Z,1.63
2023-11-23T02:55:55.559Z,2.00
2023-11-23T03:00:58.935Z,2.60
2023-11-23T03:06:02.710Z,2.03
2023-11-23T03:11:07.712Z,2.63
2023-11-23T03:16:11.179Z,2.70
2023-11-23T03:21:14.905Z,2.10
2023-11-23T03:26:19.577Z,2.37
2023-11-23T03:31:22.730Z,1.83
2023-11-23T03:36:26.036Z,3.13
2023-11-23T03:41:30.724Z,2.83
2023-11-23T03:46:33.988Z,1.80
2023-11-23T03:51:37.819Z,2.23
2023-11-23T03:56:42.797Z,2.13
2023-11-23T04:01:47.180Z,2.13
2023-11-23T04:06:50.450Z,2.87
2023-11-23T04:11:55.462Z,2.43
2023-11-23T04:16:58.708Z,1.97
2023-11-23T04:22:01.909Z,1.73
2023-11-23T04:27:06.854Z,1.93
2023-11-23T04:32:12.259Z,2.97
2023-11-23T04:37:15.411Z,2.30
2023-11-23T04:42:20.194Z,1.90
2023-11-23T04:47:24.396Z,1.77
2023-11-23T04:52:27.723Z,1.90
2023-11-23T04:57:33.207Z,2.80
2023-11-23T05:02:36.624Z,2.00
2023-11-23T05:07:42.706Z,2.10
2023-11-23T05:12:47.500Z,2.67
2023-11-23T05:17:50.867Z,3.77
2023-11-23T05:22:54.072Z,3.23
2023-11-23T05:27:59.024Z,2.97
2023-11-23T05:33:03.045Z,3.17
2023-11-23T05:38:06.281Z,3.93
2023-11-23T05:43:10.974Z,2.90
2023-11-23T05:48:14.412Z,3.07
2023-11-23T05:53:17.761Z,2.80
2023-11-23T05:58:22.473Z,5.83
2023-11-23T06:03:26.485Z,2.53
2023-11-23T06:08:30.057Z,2.33
2023-11-23T06:13:37.865Z,3.03
2023-11-23T06:18:44.479Z,3.83
2023-11-23T06:23:50.342Z,3.10
2023-11-23T06:28:55.100Z,2.37
2023-11-23T06:33:58.366Z,4.03
2023-11-23T06:39:02.180Z,4.57
2023-11-23T06:44:07.978Z,3.37
2023-11-23T06:49:12.016Z,3.63
2023-11-23T06:54:15.398Z,3.57
2023-11-23T06:59:20.773Z,3.50
2023-11-23T07:04:27.369Z,5.93
2023-11-23T07:09:30.631Z,3.20
2023-11-23T07:14:35.429Z,2.80
2023-11-23T07:19:39.069Z,3.30
2023-11-23T07:24:42.797Z,3.93
2023-11-23T07:29:47.475Z,3.17
2023-11-23T07:34:50.760Z,4.83
2023-11-23T07:39:54.177Z,3.43
2023-11-23T07:44:59.292Z,4.70
2023-11-23T07:50:02.748Z,3.13
2023-11-23T07:55:07.182Z,3.17
2023-11-23T08:00:14.560Z,3.23
2023-11-23T08:05:19.041Z,4.27
2023-11-23T08:10:22.337Z,2.17
2023-11-23T08:15:27.368Z,3.10
2023-11-23T08:20:30.545Z,2.90
2023-11-23T08:25:33.767Z,3.03
2023-11-23T08:30:40.160Z,3.67
2023-11-23T08:35:43.932Z,3.47
2023-11-23T08:40:47.963Z,3.33
2023-11-23T08:45:52.574Z,2.93
2023-11-23T08:50:56.061Z,2.63
2023-11-23T08:55:59.411Z,5.93
2023-11-23T09:01:04.255Z,2.90
2023-11-23T09:06:09.517Z,2.87
2023-11-23T09:11:12.798Z,2.83
2023-11-23T09:16:17.587Z,2.30
2023-11-23T09:21:21.040Z,2.73
2023-11-23T09:26:24.966Z,2.60
2023-11-23T09:31:32.471Z,3.30
2023-11-23T09:36:35.936Z,2.63
2023-11-23T09:41:43.409Z,2.40
2023-11-23T09:46:48.979Z,2.67
2023-11-23T09:51:56.628Z,3.17
2023-11-23T09:57:02.150Z,2.73
2023-11-23T10:02:11.010Z,3.07
2023-11-23T10:07:17.256Z,3.17
2023-11-23T10:12:23.104Z,3.07
2023-11-23T10:17:31.366Z,5.27
2023-11-23T10:22:34.755Z,2.30
2023-11-23T10:27:38.988Z,2.57
2023-11-23T10:32:46.900Z,4.13
2023-11-23T10:37:56.006Z,2.57
2023-11-23T10:43:02.427Z,3.33
2023-11-23T10:48:18.530Z,3.20
2023-11-23T10:53:34.602Z,3.03
2023-11-23T10:58:39.715Z,2.90
2023-11-23T11:03:46.257Z,2.80
2023-11-23T11:08:50.804Z,3.00
2023-11-23T11:14:02.463Z,3.13
2023-11-23T11:19:09.125Z,5.47
2023-11-23T11:24:22.886Z,3.03
2023-11-23T11:29:26.928Z,4.57
2023-11-23T11:34:35.722Z,5.20
2023-11-23T11:39:41.129Z,3.70
2023-11-23T11:44:46.624Z,3.07
2023-11-23T11:49:53.424Z,2.93
2023-11-23T11:54:57.269Z,3.27
2023-11-23T12:00:02.180Z,3.80
2023-11-23T12:05:13.527Z,5.07
2023-11-23T12:10:16.905Z,3.77
2023-11-23T12:15:20.631Z,4.30
2023-11-23T12:20:25.807Z,4.60
2023-11-23T12:25:33.222Z,4.47
2023-11-23T12:30:36.811Z,4.37
2023-11-23T12:35:41.817Z,3.70
2023-11-23T12:40:45.810Z,4.20
2023-11-23T12:45:49.089Z,4.70
2023-11-23T12:50:53.830Z,4.50
2023-11-23T12:55:57.225Z,4.47
2023-11-23T13:01:00.830Z,5.80
2023-11-23T13:06:05.850Z,5.10
2023-11-23T13:11:09.185Z,4.53
2023-11-23T13:16:12.416Z,4.23
2023-11-23T13:21:21.016Z,4.20
2023-11-23T13:26:24.744Z,4.60
2023-11-23T13:31:28.661Z,4.10
2023-11-23T13:36:35.924Z,4.50
2023-11-23T13:41:39.389Z,4.87
2023-11-23T13:46:44.393Z,3.70
2023-11-23T13:51:49.203Z,6.63
2023-11-23T13:56:53.104Z,5.27
2023-11-23T14:01:56.555Z,6.20
2023-11-23T14:07:01.860Z,7.67
2023-11-23T14:12:05.640Z,5.90
2023-11-23T14:17:10.335Z,5.20
2023-11-23T14:22:17.910Z,4.80
2023-11-23T14:27:21.835Z,4.57
2023-11-23T14:32:25.494Z,4.27
2023-11-23T14:37:30.821Z,5.37
2023-11-23T14:42:41.442Z,4.50
2023-11-23T14:47:47.529Z,5.10
2023-11-23T14:52:53.851Z,4.67
2023-11-23T14:57:58.581Z,4.90
2023-11-23T15:03:03.727Z,5.97
2023-11-23T15:08:09.796Z,6.47
2023-11-23T15:13:23.362Z,7.47
2023-11-23T15:18:34.659Z,5.87
2023-11-23T15:23:39.378Z,5.20
2023-11-23T15:28:44.214Z,6.27
2023-11-23T15:33:48.771Z,6.37
2023-11-23T15:38:53.426Z,5.83
2023-11-23T15:43:56.655Z,5.60
2023-11-23T15:48:59.945Z,7.07
2023-11-23T15:54:05.468Z,6.27
2023-11-23T15:59:09.388Z,6.63
2023-11-23T16:04:13.406Z,6.20
2023-11-23T16:09:20.754Z,6.80
2023-11-23T16:14:25.260Z,5.93
2023-11-23T16:19:28.979Z,4.87
2023-11-23T16:24:33.994Z,6.50
2023-11-23T16:29:40.545Z,6.37
2023-11-23T16:34:44.297Z,4.70
2023-11-23T16:39:50.385Z,7.07
2023-11-23T16:44:54.030Z,5.60
2023-11-23T16:49:58.781Z,5.63
2023-11-23T16:55:04.201Z,4.43
2023-11-23T17:00:12.569Z,4.93
2023-11-23T17:05:16.707Z,6.93
2023-11-23T17:10:24.312Z,4.40
2023-11-23T17:15:27.516Z,4.17
2023-11-23T17:20:31.312Z,7.40
2023-11-23T17:25:40.297Z,5.43
2023-11-23T17:30:43.728Z,4.53
2023-11-23T17:35:47.444Z,4.20
2023-11-23T17:40:52.324Z,4.33
2023-11-23T17:45:56.304Z,5.87
2023-11-23T17:51:00.559Z,4.33
2023-11-23T17:56:07.044Z,6.23
2023-11-23T18:01:11.309Z,4.27
2023-11-23T18:06:15.955Z,4.80
2023-11-23T18:11:21.817Z,4.37
2023-11-23T18:16:25.266Z,4.73
2023-11-23T18:21:28.508Z,3.50
2023-11-23T18:26:33.316Z,3.83
2023-11-23T18:31:49.544Z,5.73
2023-11-23T18:36:57.295Z,3.43
2023-11-23T18:42:06.345Z,4.13
2023-11-23T18:47:15.458Z,3.90
2023-11-23T18:52:20.398Z,3.77
2023-11-23T18:57:25.201Z,2.90
2023-11-23T19:02:29.009Z,3.97
2023-11-23T19:07:32.621Z,3.50
2023-11-23T19:12:38.468Z,4.83
2023-11-23T19:17:45.335Z,4.33
2023-11-23T19:22:51.790Z,4.37
2023-11-23T19:27:57.054Z,2.80
2023-11-23T19:33:06.412Z,4.50
2023-11-23T19:38:10.165Z,4.03
2023-11-23T19:43:16.622Z,5.37
2023-11-23T19:48:21.054Z,4.67
2023-11-23T19:53:28.005Z,2.30
2023-11-23T19:58:33.244Z,2.20
2023-11-23T20:03:38.472Z,2.30
2023-11-23T20:08:44.547Z,3.93
2023-11-23T20:13:49.537Z,7.60
2023-11-23T20:18:52.806Z,2.17
2023-11-23T20:23:59.073Z,2.53
2023-11-23T20:29:03.919Z,3.37
2023-11-23T20:34:08.633Z,1.70
2023-11-23T20:39:16.141Z,1.50
2023-11-23T20:44:28.408Z,2.40
2023-11-23T20:49:32.657Z,1.63
2023-11-23T20:54:36.102Z,1.43
2023-11-23T20:59:41.383Z,1.40
2023-11-23T21:04:45.265Z,1.50
2023-11-23T21:09:51.044Z,1.20
2023-11-23T21:14:55.871Z,1.10
2023-11-23T21:19:59.149Z,1.50
2023-11-23T21:25:02.321Z,1.53
2023-11-23T21:30:09.481Z,2.07
2023-11-23T21:35:13.282Z,1.30
2023-11-23T21:40:17.109Z,1.30
2023-11-23T21:45:22.336Z,1.23
2023-11-23T21:50:25.801Z,1.50
2023-11-23T21:55:30.913Z,1.93
2023-11-23T22:00:35.734Z,2.30
2023-11-23T22:05:38.877Z,2.90
2023-11-23T22:10:43.222Z,6.90
2023-11-23T22:15:48.128Z,2.90
2023-11-23T22:20:51.671Z,1.83
2023-11-23T22:25:56.006Z,4.87
2023-11-23T22:31:03.729Z,3.43
2023-11-23T22:36:08.067Z,6.20
2023-11-23T22:41:12.209Z,7.90
2023-11-23T22:46:19.202Z,10.27
2023-11-23T22:51:22.533Z,2.77
2023-11-23T22:56:25.930Z,3.90
2023-11-23T23:01:30.592Z,3.23
2023-11-23T23:06:34.323Z,4.27
2023-11-23T23:11:37.511Z,4.30
2023-11-23T23:16:42.172Z,4.63
2023-11-23T23:21:45.931Z,4.93
2023-11-23T23:26:49.507Z,5.60
2023-11-23T23:31:55.282Z,6.60
2023-11-23T23:36:58.829Z,4.67
2023-11-23T23:42:02.931Z,4.37
2023-11-23T23:47:08.883Z,10.43
2023-11-23T23:52:12.296Z,6.43
2023-11-23T23:57:15.475Z,7.60
